createdAt,value
2022-08-20T00:02:18.623Z,69.94
2022-08-20T00:04:48.778Z,70.27
2022-08-20T00:07:18.980Z,70.17
2022-08-20T00:09:49.210Z,70.54
2022-08-20T00:12:20.213Z,70.29
2022-08-20T00:14:50.178Z,70.26
2022-08-20T00:17:20.375Z,70.50
2022-08-20T00:19:51.680Z,70.40
2022-08-20T00:22:21.478Z,69.96
2022-08-20T00:24:51.903Z,70.19
2022-08-20T00:27:21.881Z,70.24
2022-08-20T00:29:51.875Z,70.06
2022-08-20T00:32:21.896Z,69.85
2022-08-20T00:34:53.341Z,69.82
2022-08-20T00:37:23.564Z,69.68
2022-08-20T00:39:53.664Z,69.79
2022-08-20T00:42:23.706Z,69.94
2022-08-20T00:44:53.993Z,69.84
2022-08-20T00:47:24.248Z,70.21
2022-08-20T00:49:54.311Z,70.24
2022-08-20T00:52:25.030Z,69.60
2022-08-20T00:54:59.596Z,70.16
2022-08-20T00:57:56.746Z,70.01
2022-08-20T01:00:40.053Z,70.82
2022-08-20T01:03:13.468Z,70.97
2022-08-20T01:05:50.164Z,70.60
2022-08-20T01:08:23.912Z,70.48
2022-08-20T01:10:56.038Z,70.17
2022-08-20T01:13:27.334Z,70.92
2022-08-20T01:15:59.475Z,70.42
2022-08-20T01:18:30.765Z,70.89
2022-08-20T01:21:05.533Z,70.48
2022-08-20T01:24:00.407Z,70.99
2022-08-20T01:26:44.108Z,70.72
2022-08-20T01:29:21.046Z,70.83
2022-08-20T01:31:51.391Z,70.83
2022-08-20T01:34:23.278Z,70.92
2022-08-20T01:36:57.451Z,71.06
2022-08-20T01:39:32.349Z,70.86
2022-08-20T01:42:03.072Z,70.92
2022-08-20T01:44:35.757Z,70.46
2022-08-20T01:47:22.824Z,70.27
2022-08-20T01:49:56.710Z,70.37
2022-08-20T01:52:40.371Z,70.14
2022-08-20T01:55:12.413Z,70.16
2022-08-20T01:57:43.423Z,70.01
2022-08-20T02:00:19.794Z,70.39
2022-08-20T02:02:51.637Z,70.10
2022-08-20T02:05:23.268Z,70.51
2022-08-20T02:07:53.603Z,70.59
2022-08-20T02:10:25.930Z,70.72
2022-08-20T02:12:56.729Z,70.45
2022-08-20T02:15:34.661Z,70.22
2022-08-20T02:18:14.198Z,69.53
2022-08-20T02:20:45.782Z,69.63
2022-08-20T02:23:17.760Z,69.13
2022-08-20T02:25:49.874Z,68.96
2022-08-20T02:28:22.722Z,69.17
2022-08-20T02:30:57.425Z,68.98
2022-08-20T02:33:27.674Z,69.53
2022-08-20T02:35:58.965Z,69.26
2022-08-20T02:38:29.405Z,68.73
2022-08-20T02:40:59.814Z,68.51
2022-08-20T02:43:30.666Z,68.57
2022-08-20T02:46:03.235Z,68.71
2022-08-20T02:48:33.781Z,68.68
2022-08-20T02:51:08.475Z,68.25
2022-08-20T02:53:41.566Z,68.28
2022-08-20T02:56:13.618Z,68.38
2022-08-20T02:58:45.051Z,68.46
2022-08-20T03:01:18.525Z,67.81
2022-08-20T03:03:49.267Z,67.87
2022-08-20T03:06:19.601Z,68.30
2022-08-20T03:08:50.031Z,68.03
2022-08-20T03:11:21.424Z,68.33
2022-08-20T03:13:51.498Z,68.25
2022-08-20T03:16:21.976Z,68.20
2022-08-20T03:18:52.396Z,67.74
2022-08-20T03:21:22.630Z,67.98
2022-08-20T03:23:52.845Z,67.52
2022-08-20T03:26:23.084Z,67.75
2022-08-20T03:28:53.129Z,67.41
2022-08-20T03:31:23.316Z,67.52
2022-08-20T03:33:53.924Z,67.64
2022-08-20T03:36:29.162Z,67.51
2022-08-20T03:39:03.644Z,67.42
2022-08-20T03:41:34.460Z,66.96
2022-08-20T03:44:04.708Z,66.95
2022-08-20T03:46:35.793Z,67.04
2022-08-20T03:49:06.308Z,67.20
2022-08-20T03:51:56.067Z,67.30
2022-08-20T03:54:31.596Z,67.73
2022-08-20T03:57:12.766Z,67.18
2022-08-20T03:59:44.444Z,66.78
2022-08-20T04:02:15.459Z,67.39
2022-08-20T04:04:46.319Z,67.27
2022-08-20T04:07:22.757Z,67.52
2022-08-20T04:09:53.018Z,67.27
2022-08-20T04:12:23.434Z,67.28
2022-08-20T04:14:54.717Z,67.25
2022-08-20T04:17:25.551Z,67.78
2022-08-20T04:19:55.735Z,66.72
2022-08-20T04:22:25.883Z,67.22
2022-08-20T04:24:55.816Z,67.20
2022-08-20T04:27:25.885Z,66.97
2022-08-20T04:29:55.972Z,66.86
2022-08-20T04:32:26.070Z,66.90
2022-08-20T04:34:56.757Z,66.96
2022-08-20T15:32:09.708Z,72.66
2022-08-20T15:34:42.102Z,72.05
2022-08-20T15:37:24.795Z,72.71
2022-08-20T15:39:55.366Z,72.43
2022-08-20T15:42:26.287Z,72.24
2022-08-20T15:44:56.621Z,71.41
2022-08-20T15:47:32.367Z,72.19
2022-08-20T15:50:14.205Z,71.69
2022-08-20T15:52:49.256Z,71.77
2022-08-20T15:55:20.095Z,71.31
2022-08-20T15:58:04.318Z,71.49
2022-08-20T16:00:52.718Z,71.28
2022-08-20T16:03:41.503Z,71.31
2022-08-20T16:06:26.480Z,71.38
2022-08-20T16:09:09.595Z,70.96
2022-08-20T16:11:57.430Z,71.75
2022-08-20T16:14:37.088Z,71.81
2022-08-20T16:17:18.754Z,71.50
2022-08-20T16:20:15.447Z,71.51
2022-08-20T16:22:48.679Z,71.54
2022-08-20T16:25:24.905Z,71.52
2022-08-20T16:28:19.181Z,71.48
2022-08-20T16:30:52.395Z,71.01
2022-08-20T16:33:33.681Z,71.27
2022-08-20T16:36:35.372Z,71.39
2022-08-20T16:39:10.236Z,71.64
2022-08-20T16:41:49.194Z,71.33
2022-08-20T16:44:49.766Z,71.68
2022-08-20T16:47:38.745Z,71.55
2022-08-20T16:50:29.352Z,71.86
2022-08-20T16:52:59.917Z,72.11
2022-08-20T16:55:30.121Z,72.16
2022-08-20T16:58:00.768Z,72.04
2022-08-20T17:00:44.959Z,72.16
2022-08-20T17:03:31.427Z,71.97
2022-08-20T17:06:48.243Z,72.40
2022-08-20T17:09:43.417Z,72.05
2022-08-20T17:12:24.630Z,72.10
2022-08-20T17:14:58.943Z,72.27
2022-08-20T17:17:34.395Z,72.23
2022-08-20T17:20:33.827Z,72.31
2022-08-20T17:23:14.346Z,72.02
2022-08-20T17:25:44.776Z,72.40
2022-08-20T17:28:25.214Z,71.95
2022-08-20T17:30:57.511Z,72.39
2022-08-20T17:33:41.655Z,72.36
2022-08-20T17:36:30.373Z,72.31
2022-08-20T17:39:03.361Z,72.06
2022-08-20T17:41:37.983Z,72.36
2022-08-20T17:44:23.863Z,72.11
2022-08-20T17:46:56.250Z,72.16
2022-08-20T17:50:02.087Z,72.54
2022-08-20T17:52:51.391Z,72.51
2022-08-20T17:55:23.134Z,72.42
2022-08-20T17:58:02.898Z,72.06
2022-08-20T18:00:34.534Z,72.23
2022-08-20T18:03:18.266Z,72.54
2022-08-20T18:05:53.480Z,72.26
2022-08-20T18:08:36.012Z,72.38
2022-08-20T18:11:26.257Z,71.85
2022-08-20T18:14:19.611Z,72.32
2022-08-20T18:17:24.828Z,72.00
2022-08-20T18:19:57.920Z,71.70
2022-08-20T18:22:35.357Z,71.79
2022-08-20T18:25:28.753Z,71.85
2022-08-20T18:28:10.981Z,71.84
2022-08-20T18:30:51.876Z,71.83
2022-08-20T18:33:32.547Z,71.51
2022-08-20T18:36:13.403Z,71.68
2022-08-20T18:38:45.233Z,71.23
2022-08-20T18:41:40.681Z,71.54
2022-08-20T18:44:17.461Z,71.35
2022-08-20T18:47:00.151Z,71.00
2022-08-20T18:49:31.744Z,71.15
2022-08-20T18:52:15.811Z,71.09
2022-08-20T18:54:54.139Z,70.98
2022-08-20T18:57:40.534Z,70.86
2022-08-20T19:00:16.438Z,71.34
2022-08-20T19:03:09.806Z,71.16
2022-08-20T19:05:49.175Z,71.17
2022-08-20T19:08:25.560Z,71.14
2022-08-20T19:11:21.291Z,70.87
2022-08-20T19:14:17.316Z,71.20
2022-08-20T19:17:01.270Z,71.13
2022-08-20T19:19:33.101Z,70.59
2022-08-20T19:22:05.033Z,71.09
2022-08-20T19:24:41.911Z,71.13
2022-08-20T19:27:15.244Z,70.99
2022-08-20T19:29:56.902Z,70.85
2022-08-20T19:32:34.094Z,71.15
2022-08-20T19:35:09.916Z,71.06
2022-08-20T19:37:51.242Z,71.13
2022-08-20T19:40:38.174Z,70.69
2022-08-20T19:43:16.588Z,71.09
2022-08-20T19:45:55.472Z,71.18
2022-08-20T19:48:51.961Z,71.08
2022-08-20T19:51:37.104Z,71.08
2022-08-20T19:54:21.781Z,71.32
2022-08-20T19:56:52.326Z,71.09
2022-08-20T19:59:24.541Z,70.94
2022-08-20T20:02:04.961Z,70.88
2022-08-20T20:04:55.374Z,71.11
2022-08-20T20:07:51.137Z,71.05
2022-08-20T20:10:37.809Z,70.81
2022-08-20T20:13:14.846Z,70.66
2022-08-20T20:15:46.040Z,70.69
2022-08-20T20:18:16.604Z,70.72
2022-08-20T20:20:56.981Z,70.74
2022-08-20T20:23:41.692Z,70.85
2022-08-20T20:26:22.091Z,70.69
2022-08-20T20:29:04.143Z,70.55
2022-08-20T20:31:40.104Z,70.18
2022-08-20T20:34:16.509Z,70.30
2022-08-20T20:36:50.632Z,69.56
2022-08-20T20:39:33.790Z,69.98
2022-08-20T20:42:06.660Z,70.31
2022-08-20T20:44:40.005Z,70.16
2022-08-20T20:47:20.589Z,69.74
2022-08-20T20:49:54.934Z,70.10
2022-08-20T20:52:51.419Z,69.73
2022-08-20T20:55:34.785Z,69.79
2022-08-20T20:58:06.179Z,69.93
2022-08-20T21:00:36.949Z,69.29
2022-08-20T21:03:07.340Z,69.18
2022-08-20T21:05:37.883Z,69.11
2022-08-20T21:08:11.302Z,69.66
2022-08-20T21:10:43.925Z,68.99
2022-08-20T21:13:14.629Z,69.57
2022-08-20T21:15:44.722Z,68.90
2022-08-20T21:18:14.843Z,69.17
2022-08-20T21:20:45.389Z,68.94
2022-08-20T21:23:15.851Z,69.23
2022-08-20T21:25:46.066Z,69.01
2022-08-20T21:28:16.486Z,68.75
2022-08-20T21:30:47.710Z,69.33
2022-08-20T21:33:27.746Z,69.52
2022-08-20T21:35:59.069Z,69.50
2022-08-20T21:38:28.890Z,69.82
2022-08-20T21:40:59.920Z,69.96
2022-08-20T21:43:32.801Z,69.60
2022-08-20T21:46:04.394Z,69.46
2022-08-20T21:48:36.194Z,69.13
2022-08-20T21:51:06.507Z,69.29
2022-08-20T21:53:36.941Z,69.68
2022-08-20T21:56:07.597Z,69.47
2022-08-20T21:58:38.551Z,69.12
2022-08-20T22:01:09.869Z,69.23
2022-08-20T22:03:41.212Z,69.73
2022-08-20T22:06:13.910Z,69.54
2022-08-20T22:08:44.472Z,69.39
2022-08-20T22:11:15.987Z,69.56
2022-08-20T22:13:47.196Z,69.60
2022-08-20T22:16:20.648Z,69.66
2022-08-20T22:18:52.498Z,69.16
2022-08-20T22:21:29.136Z,69.50
2022-08-20T22:24:04.543Z,69.54
2022-08-20T22:26:37.333Z,69.57
2022-08-20T22:29:09.155Z,69.84
2022-08-20T22:31:42.970Z,69.93
2022-08-20T22:34:16.086Z,69.53
2022-08-20T22:36:46.614Z,69.89
2022-08-20T22:39:17.075Z,69.45
2022-08-20T22:41:47.211Z,69.62
2022-08-20T22:44:17.300Z,69.41
2022-08-20T22:46:50.515Z,69.71
2022-08-20T22:49:26.688Z,69.83
2022-08-20T22:51:57.070Z,69.85
2022-08-20T22:54:27.794Z,69.84
2022-08-20T22:57:00.166Z,69.88
2022-08-20T22:59:30.661Z,69.82
2022-08-20T23:02:03.405Z,69.52
2022-08-20T23:04:38.868Z,69.62
2022-08-20T23:07:13.552Z,69.47
2022-08-20T23:09:45.648Z,69.42
2022-08-20T23:12:15.934Z,69.34
2022-08-20T23:14:46.482Z,69.56
2022-08-20T23:17:22.188Z,69.40
2022-08-20T23:19:53.560Z,69.26
2022-08-20T23:22:24.537Z,69.29
2022-08-20T23:24:57.361Z,69.06
2022-08-20T23:27:30.789Z,69.16
2022-08-20T23:30:01.621Z,69.92
2022-08-20T23:32:31.907Z,69.68
2022-08-20T23:35:02.476Z,70.09
2022-08-20T23:37:32.593Z,70.01
2022-08-20T23:40:02.648Z,69.82
2022-08-20T23:42:32.799Z,69.03
2022-08-20T23:45:03.268Z,68.84
2022-08-20T23:47:33.729Z,69.19
2022-08-20T23:50:03.954Z,69.47
2022-08-20T23:52:34.194Z,69.75
2022-08-20T23:57:50.546Z,69.71
